sensor_id;sensor_type;location;lat;lon;timestamp;temperature;humidity
12922;DHT22;6528;48.086;16.282;2022-09-09T00:00:49;17.50;99.90
12922;DHT22;6528;48.086;16.282;2022-09-09T00:03:26;17.40;99.90
12922;DHT22;6528;48.086;16.282;2022-09-09T00:11:11;17.20;99.90
12922;DHT22;6528;48.086;16.282;2022-09-09T00:13:47;17.20;99.90
12922;DHT22;6528;48.086;16.282;2022-09-09T00:16:20;17.10;99.90
12922;DHT22;6528;48.086;16.282;2022-09-09T00:19:07;17.10;99.90
12922;DHT22;6528;48.086;16.282;2022-09-09T00:24:35;17.10;99.90
12922;DHT22;6528;48.086;16.282;2022-09-09T00:27:16;17.00;99.90
12922;DHT22;6528;48.086;16.282;2022-09-09T00:29:47;17.00;99.90
12922;DHT22;6528;48.086;16.282;2022-09-09T00:32:20;17.00;99.90
12922;DHT22;6528;48.086;16.282;2022-09-09T00:35:22;16.90;99.90
12922;DHT22;6528;48.086;16.282;2022-09-09T00:37:52;16.90;99.90
12922;DHT22;6528;48.086;16.282;2022-09-09T00:40:35;16.90;99.90
12922;DHT22;6528;48.086;16.282;2022-09-09T00:43:21;16.80;99.90
12922;DHT22;6528;48.086;16.282;2022-09-09T00:48:58;16.80;99.90
12922;DHT22;6528;48.086;16.282;2022-09-09T00:56:59;16.80;99.90
12922;DHT22;6528;48.086;16.282;2022-09-09T01:02:27;16.60;99.90
12922;DHT22;6528;48.086;16.282;2022-09-09T01:05:33;16.60;99.90
12922;DHT22;6528;48.086;16.282;2022-09-09T01:08:03;16.70;99.90
12922;DHT22;6528;48.086;16.282;2022-09-09T01:10:43;16.80;99.90
12922;DHT22;6528;48.086;16.282;2022-09-09T01:13:27;16.80;99.90
12922;DHT22;6528;48.086;16.282;2022-09-09T01:16:00;16.80;99.90
12922;DHT22;6528;48.086;16.282;2022-09-09T01:18:49;16.90;99.90
12922;DHT22;6528;48.086;16.282;2022-09-09T01:24:27;17.00;99.90
12922;DHT22;6528;48.086;16.282;2022-09-09T01:27:02;17.10;99.90
12922;DHT22;6528;48.086;16.282;2022-09-09T01:29:30;17.00;99.90
12922;DHT22;6528;48.086;16.282;2022-09-09T01:32:03;17.00;99.90
12922;DHT22;6528;48.086;16.282;2022-09-09T01:34:37;17.00;99.90
12922;DHT22;6528;48.086;16.282;2022-09-09T01:37:07;17.10;99.90
12922;DHT22;6528;48.086;16.282;2022-09-09T01:39:37;17.00;99.90
12922;DHT22;6528;48.086;16.282;2022-09-09T01:42:06;16.90;99.90
12922;DHT22;6528;48.086;16.282;2022-09-09T01:44:34;16.90;99.90
12922;DHT22;6528;48.086;16.282;2022-09-09T01:47:03;16.90;99.90
12922;DHT22;6528;48.086;16.282;2022-09-09T01:49:30;16.80;99.90
12922;DHT22;6528;48.086;16.282;2022-09-09T01:51:58;16.80;99.90
12922;DHT22;6528;48.086;16.282;2022-09-09T01:54:31;16.80;99.90
12922;DHT22;6528;48.086;16.282;2022-09-09T01:57:29;16.80;99.90
12922;DHT22;6528;48.086;16.282;2022-09-09T02:00:05;16.80;99.90
12922;DHT22;6528;48.086;16.282;2022-09-09T02:05:48;16.70;99.90
12922;DHT22;6528;48.086;16.282;2022-09-09T02:08:48;16.50;99.90
12922;DHT22;6528;48.086;16.282;2022-09-09T02:11:20;16.40;99.90
12922;DHT22;6528;48.086;16.282;2022-09-09T02:13:49;16.40;99.90
12922;DHT22;6528;48.086;16.282;2022-09-09T02:16:24;16.30;99.90
12922;DHT22;6528;48.086;16.282;2022-09-09T02:19:15;16.30;99.90
12922;DHT22;6528;48.086;16.282;2022-09-09T02:21:45;16.20;99.90
12922;DHT22;6528;48.086;16.282;2022-09-09T02:24:14;16.20;99.90
12922;DHT22;6528;48.086;16.282;2022-09-09T02:26:43;16.20;99.90
12922;DHT22;6528;48.086;16.282;2022-09-09T02:29:17;16.20;99.90
12922;DHT22;6528;48.086;16.282;2022-09-09T02:31:47;16.20;99.90
12922;DHT22;6528;48.086;16.282;2022-09-09T02:34:16;16.20;99.90
12922;DHT22;6528;48.086;16.282;2022-09-09T02:36:45;16.10;99.90
12922;DHT22;6528;48.086;16.282;2022-09-09T02:39:13;16.10;99.90
12922;DHT22;6528;48.086;16.282;2022-09-09T02:41:41;16.10;99.90
12922;DHT22;6528;48.086;16.282;2022-09-09T02:44:14;16.10;99.90
12922;DHT22;6528;48.086;16.282;2022-09-09T02:52:32;16.10;99.90
12922;DHT22;6528;48.086;16.282;2022-09-09T02:55:09;16.10;99.90
12922;DHT22;6528;48.086;16.282;2022-09-09T02:57:38;16.10;99.90
12922;DHT22;6528;48.086;16.282;2022-09-09T03:00:06;16.10;99.90
12922;DHT22;6528;48.086;16.282;2022-09-09T03:02:33;16.10;99.90
12922;DHT22;6528;48.086;16.282;2022-09-09T03:05:00;16.10;99.90
12922;DHT22;6528;48.086;16.282;2022-09-09T03:07:27;16.10;99.90
12922;DHT22;6528;48.086;16.282;2022-09-09T03:09:54;16.10;99.90
12922;DHT22;6528;48.086;16.282;2022-09-09T03:12:21;16.10;99.90
12922;DHT22;6528;48.086;16.282;2022-09-09T03:14:48;16.20;99.90
12922;DHT22;6528;48.086;16.282;2022-09-09T03:17:14;16.20;99.90
12922;DHT22;6528;48.086;16.282;2022-09-09T03:19:41;16.20;99.90
12922;DHT22;6528;48.086;16.282;2022-09-09T03:22:10;16.20;99.90
12922;DHT22;6528;48.086;16.282;2022-09-09T03:24:37;16.20;99.90
12922;DHT22;6528;48.086;16.282;2022-09-09T03:27:04;16.20;99.90
12922;DHT22;6528;48.086;16.282;2022-09-09T03:29:30;16.30;99.90
12922;DHT22;6528;48.086;16.282;2022-09-09T03:31:57;16.30;99.90
12922;DHT22;6528;48.086;16.282;2022-09-09T03:34:24;16.30;99.90
12922;DHT22;6528;48.086;16.282;2022-09-09T03:36:51;16.30;99.90
12922;DHT22;6528;48.086;16.282;2022-09-09T03:39:18;16.30;99.90
12922;DHT22;6528;48.086;16.282;2022-09-09T03:41:44;16.20;99.90
12922;DHT22;6528;48.086;16.282;2022-09-09T03:44:12;16.20;99.90
12922;DHT22;6528;48.086;16.282;2022-09-09T03:46:39;16.10;99.90
12922;DHT22;6528;48.086;16.282;2022-09-09T03:49:06;16.10;99.90
12922;DHT22;6528;48.086;16.282;2022-09-09T03:51:33;16.10;99.90
12922;DHT22;6528;48.086;16.282;2022-09-09T03:54:02;15.90;99.90
12922;DHT22;6528;48.086;16.282;2022-09-09T03:56:31;15.90;99.90
12922;DHT22;6528;48.086;16.282;2022-09-09T03:58:58;15.80;99.90
12922;DHT22;6528;48.086;16.282;2022-09-09T04:01:25;15.80;99.90
12922;DHT22;6528;48.086;16.282;2022-09-09T04:03:52;15.70;99.90
12922;DHT22;6528;48.086;16.282;2022-09-09T04:06:19;15.70;99.90
12922;DHT22;6528;48.086;16.282;2022-09-09T04:08:47;15.60;99.90
12922;DHT22;6528;48.086;16.282;2022-09-09T04:11:15;15.60;99.90
12922;DHT22;6528;48.086;16.282;2022-09-09T04:13:42;15.60;99.90
12922;DHT22;6528;48.086;16.282;2022-09-09T04:16:12;15.60;99.90
12922;DHT22;6528;48.086;16.282;2022-09-09T04:18:40;15.60;99.90
12922;DHT22;6528;48.086;16.282;2022-09-09T04:21:08;15.50;1.00
12922;DHT22;6528;48.086;16.282;2022-09-09T04:23:36;15.50;1.00
12922;DHT22;6528;48.086;16.282;2022-09-09T04:26:04;15.50;1.00
12922;DHT22;6528;48.086;16.282;2022-09-09T04:28:33;15.60;1.00
12922;DHT22;6528;48.086;16.282;2022-09-09T04:31:14;15.60;1.00
12922;DHT22;6528;48.086;16.282;2022-09-09T04:33:41;15.60;1.00
12922;DHT22;6528;48.086;16.282;2022-09-09T04:36:08;15.50;1.00
12922;DHT22;6528;48.086;16.282;2022-09-09T04:38:35;15.40;1.00
12922;DHT22;6528;48.086;16.282;2022-09-09T04:41:02;15.40;1.00
12922;DHT22;6528;48.086;16.282;2022-09-09T04:43:29;15.40;1.00
12922;DHT22;6528;48.086;16.282;2022-09-09T04:45:57;15.40;1.00
12922;DHT22;6528;48.086;16.282;2022-09-09T04:48:25;15.50;1.00
12922;DHT22;6528;48.086;16.282;2022-09-09T04:51:04;15.40;1.00
12922;DHT22;6528;48.086;16.282;2022-09-09T04:53:32;15.40;1.00
12922;DHT22;6528;48.086;16.282;2022-09-09T04:56:05;15.50;1.00
12922;DHT22;6528;48.086;16.282;2022-09-09T04:58:34;15.60;1.00
12922;DHT22;6528;48.086;16.282;2022-09-09T05:01:06;15.60;1.00
12922;DHT22;6528;48.086;16.282;2022-09-09T05:03:35;15.60;1.00
12922;DHT22;6528;48.086;16.282;2022-09-09T05:06:11;15.60;1.00
12922;DHT22;6528;48.086;16.282;2022-09-09T05:08:40;15.50;1.00
12922;DHT22;6528;48.086;16.282;2022-09-09T05:11:21;15.50;1.00
12922;DHT22;6528;48.086;16.282;2022-09-09T05:13:50;15.50;1.00
12922;DHT22;6528;48.086;16.282;2022-09-09T05:16:18;15.40;1.00
12922;DHT22;6528;48.086;16.282;2022-09-09T05:18:46;15.50;1.00
12922;DHT22;6528;48.086;16.282;2022-09-09T05:21:14;15.50;1.00
12922;DHT22;6528;48.086;16.282;2022-09-09T05:23:41;15.70;1.00
12922;DHT22;6528;48.086;16.282;2022-09-09T05:26:13;15.70;1.00
12922;DHT22;6528;48.086;16.282;2022-09-09T05:28:43;15.80;1.00
12922;DHT22;6528;48.086;16.282;2022-09-09T05:31:12;15.80;1.00
12922;DHT22;6528;48.086;16.282;2022-09-09T05:33:41;15.80;1.00
12922;DHT22;6528;48.086;16.282;2022-09-09T05:36:15;15.90;1.00
12922;DHT22;6528;48.086;16.282;2022-09-09T05:38:43;15.90;1.00
12922;DHT22;6528;48.086;16.282;2022-09-09T05:41:10;15.80;1.00
12922;DHT22;6528;48.086;16.282;2022-09-09T05:43:38;15.90;1.00
12922;DHT22;6528;48.086;16.282;2022-09-09T05:46:06;16.00;1.00
12922;DHT22;6528;48.086;16.282;2022-09-09T05:48:36;16.00;1.00
12922;DHT22;6528;48.086;16.282;2022-09-09T05:51:05;16.20;1.00
12922;DHT22;6528;48.086;16.282;2022-09-09T05:53:33;16.20;1.00
12922;DHT22;6528;48.086;16.282;2022-09-09T05:56:12;16.20;1.00
12922;DHT22;6528;48.086;16.282;2022-09-09T05:58:38;16.30;1.00
12922;DHT22;6528;48.086;16.282;2022-09-09T06:01:11;16.30;1.00
12922;DHT22;6528;48.086;16.282;2022-09-09T06:03:39;16.40;1.00
12922;DHT22;6528;48.086;16.282;2022-09-09T06:06:15;16.40;1.00
12922;DHT22;6528;48.086;16.282;2022-09-09T06:08:43;16.40;1.00
12922;DHT22;6528;48.086;16.282;2022-09-09T06:11:13;16.40;1.00
12922;DHT22;6528;48.086;16.282;2022-09-09T06:13:41;16.40;1.00
12922;DHT22;6528;48.086;16.282;2022-09-09T06:16:12;16.50;1.00
12922;DHT22;6528;48.086;16.282;2022-09-09T06:18:40;16.50;1.00
12922;DHT22;6528;48.086;16.282;2022-09-09T06:21:17;16.70;1.00
12922;DHT22;6528;48.086;16.282;2022-09-09T06:23:45;16.60;1.00
12922;DHT22;6528;48.086;16.282;2022-09-09T06:26:14;16.90;1.00
12922;DHT22;6528;48.086;16.282;2022-09-09T06:28:41;17.00;1.00
12922;DHT22;6528;48.086;16.282;2022-09-09T06:31:10;17.10;1.00
12922;DHT22;6528;48.086;16.282;2022-09-09T06:33:39;17.30;1.00
12922;DHT22;6528;48.086;16.282;2022-09-09T06:36:11;17.50;1.00
12922;DHT22;6528;48.086;16.282;2022-09-09T06:38:39;17.80;1.00
12922;DHT22;6528;48.086;16.282;2022-09-09T06:41:05;18.00;1.00
12922;DHT22;6528;48.086;16.282;2022-09-09T06:43:32;18.20;1.00
12922;DHT22;6528;48.086;16.282;2022-09-09T06:48:27;18.50;1.00
12922;DHT22;6528;48.086;16.282;2022-09-09T06:51:15;18.60;1.00
12922;DHT22;6528;48.086;16.282;2022-09-09T06:53:43;18.70;1.00
12922;DHT22;6528;48.086;16.282;2022-09-09T06:58:44;19.00;1.00
12922;DHT22;6528;48.086;16.282;2022-09-09T07:01:13;19.20;1.00
12922;DHT22;6528;48.086;16.282;2022-09-09T07:03:41;19.40;1.00
12922;DHT22;6528;48.086;16.282;2022-09-09T07:06:14;19.70;1.00
12922;DHT22;6528;48.086;16.282;2022-09-09T07:08:41;19.80;1.00
12922;DHT22;6528;48.086;16.282;2022-09-09T07:11:08;20.10;1.00
12922;DHT22;6528;48.086;16.282;2022-09-09T07:13:38;20.30;1.00
12922;DHT22;6528;48.086;16.282;2022-09-09T07:16:10;20.50;99.90
12922;DHT22;6528;48.086;16.282;2022-09-09T07:18:37;20.60;99.90
12922;DHT22;6528;48.086;16.282;2022-09-09T07:21:04;20.80;99.90
12922;DHT22;6528;48.086;16.282;2022-09-09T07:23:31;20.90;99.90
12922;DHT22;6528;48.086;16.282;2022-09-09T07:26:02;21.10;99.90
12922;DHT22;6528;48.086;16.282;2022-09-09T07:28:29;21.30;99.90
12922;DHT22;6528;48.086;16.282;2022-09-09T07:30:59;21.40;1.00
12922;DHT22;6528;48.086;16.282;2022-09-09T07:33:31;21.30;1.00
12922;DHT22;6528;48.086;16.282;2022-09-09T07:36:07;21.10;1.00
12922;DHT22;6528;48.086;16.282;2022-09-09T07:38:49;20.90;1.00
12922;DHT22;6528;48.086;16.282;2022-09-09T07:41:23;21.00;1.00
12922;DHT22;6528;48.086;16.282;2022-09-09T07:43:51;21.30;1.00
12922;DHT22;6528;48.086;16.282;2022-09-09T07:46:22;21.40;99.90
12922;DHT22;6528;48.086;16.282;2022-09-09T07:48:52;21.50;99.90
12922;DHT22;6528;48.086;16.282;2022-09-09T07:51:25;21.40;99.90
12922;DHT22;6528;48.086;16.282;2022-09-09T07:53:55;21.30;99.90
12922;DHT22;6528;48.086;16.282;2022-09-09T07:56:25;21.20;99.90
12922;DHT22;6528;48.086;16.282;2022-09-09T07:58:53;21.20;99.90
12922;DHT22;6528;48.086;16.282;2022-09-09T08:01:26;21.30;99.90
12922;DHT22;6528;48.086;16.282;2022-09-09T08:03:56;21.40;99.90
12922;DHT22;6528;48.086;16.282;2022-09-09T08:06:30;21.70;99.90
12922;DHT22;6528;48.086;16.282;2022-09-09T08:08:57;22.90;99.90
12922;DHT22;6528;48.086;16.282;2022-09-09T08:11:25;23.50;99.90
12922;DHT22;6528;48.086;16.282;2022-09-09T08:13:52;23.80;99.90
12922;DHT22;6528;48.086;16.282;2022-09-09T08:16:26;23.90;99.90
12922;DHT22;6528;48.086;16.282;2022-09-09T08:18:54;24.20;99.90
12922;DHT22;6528;48.086;16.282;2022-09-09T08:21:23;25.00;99.90
12922;DHT22;6528;48.086;16.282;2022-09-09T08:33:51;27.00;99.90
12922;DHT22;6528;48.086;16.282;2022-09-09T08:58:53;33.80;99.90
12922;DHT22;6528;48.086;16.282;2022-09-09T09:11:59;32.40;99.90
12922;DHT22;6528;48.086;16.282;2022-09-09T09:14:31;30.40;99.90
12922;DHT22;6528;48.086;16.282;2022-09-09T09:24:53;28.60;99.90
12922;DHT22;6528;48.086;16.282;2022-09-09T09:30:23;27.10;99.90
12922;DHT22;6528;48.086;16.282;2022-09-09T09:35:23;26.50;99.90
12922;DHT22;6528;48.086;16.282;2022-09-09T09:37:50;26.20;99.90
12922;DHT22;6528;48.086;16.282;2022-09-09T09:45:41;25.80;99.90
12922;DHT22;6528;48.086;16.282;2022-09-09T09:48:30;25.90;99.90
12922;DHT22;6528;48.086;16.282;2022-09-09T09:51:09;27.00;99.90
12922;DHT22;6528;48.086;16.282;2022-09-09T09:53:38;28.30;99.90
12922;DHT22;6528;48.086;16.282;2022-09-09T09:56:08;29.30;99.90
12922;DHT22;6528;48.086;16.282;2022-09-09T09:58:56;29.60;99.90
12922;DHT22;6528;48.086;16.282;2022-09-09T10:01:33;29.50;99.90
12922;DHT22;6528;48.086;16.282;2022-09-09T10:04:16;29.40;99.90
12922;DHT22;6528;48.086;16.282;2022-09-09T10:06:44;29.40;99.90
12922;DHT22;6528;48.086;16.282;2022-09-09T10:09:29;29.70;99.90
12922;DHT22;6528;48.086;16.282;2022-09-09T10:22:28;30.60;99.90
12922;DHT22;6528;48.086;16.282;2022-09-09T10:28:14;28.20;99.90
12922;DHT22;6528;48.086;16.282;2022-09-09T10:36:13;26.90;99.90
12922;DHT22;6528;48.086;16.282;2022-09-09T10:38:42;26.80;99.90
12922;DHT22;6528;48.086;16.282;2022-09-09T10:44:10;26.90;99.90
12922;DHT22;6528;48.086;16.282;2022-09-09T10:50:18;27.40;99.90
12922;DHT22;6528;48.086;16.282;2022-09-09T10:55:37;27.10;99.90
12922;DHT22;6528;48.086;16.282;2022-09-09T10:58:09;26.90;99.90
12922;DHT22;6528;48.086;16.282;2022-09-09T11:03:05;26.50;99.90
12922;DHT22;6528;48.086;16.282;2022-09-09T11:05:43;26.40;99.90
12922;DHT22;6528;48.086;16.282;2022-09-09T11:13:35;26.10;99.90
12922;DHT22;6528;48.086;16.282;2022-09-09T11:16:16;26.00;99.90
12922;DHT22;6528;48.086;16.282;2022-09-09T11:18:44;26.00;99.90
12922;DHT22;6528;48.086;16.282;2022-09-09T11:21:30;25.90;99.90
12922;DHT22;6528;48.086;16.282;2022-09-09T11:38:42;26.30;99.90
12922;DHT22;6528;48.086;16.282;2022-09-09T11:41:12;26.40;99.90
12922;DHT22;6528;48.086;16.282;2022-09-09T11:43:50;26.40;99.90
12922;DHT22;6528;48.086;16.282;2022-09-09T11:46:31;26.30;99.90
12922;DHT22;6528;48.086;16.282;2022-09-09T11:49:03;26.20;99.90
12922;DHT22;6528;48.086;16.282;2022-09-09T11:51:31;26.20;99.90
12922;DHT22;6528;48.086;16.282;2022-09-09T11:54:00;26.10;99.90
12922;DHT22;6528;48.086;16.282;2022-09-09T11:56:43;26.30;99.90
12922;DHT22;6528;48.086;16.282;2022-09-09T11:59:25;26.40;99.90
12922;DHT22;6528;48.086;16.282;2022-09-09T12:02:14;26.50;99.90
12922;DHT22;6528;48.086;16.282;2022-09-09T12:05:08;26.50;99.90
12922;DHT22;6528;48.086;16.282;2022-09-09T12:10:32;26.50;99.90
12922;DHT22;6528;48.086;16.282;2022-09-09T12:13:20;26.40;99.90
12922;DHT22;6528;48.086;16.282;2022-09-09T12:15:56;26.30;99.90
12922;DHT22;6528;48.086;16.282;2022-09-09T12:23:53;25.90;99.90
12922;DHT22;6528;48.086;16.282;2022-09-09T12:26:34;25.60;99.90
12922;DHT22;6528;48.086;16.282;2022-09-09T12:37:14;25.30;99.90
12922;DHT22;6528;48.086;16.282;2022-09-09T12:39:49;25.20;99.90
12922;DHT22;6528;48.086;16.282;2022-09-09T12:42:22;25.20;99.90
12922;DHT22;6528;48.086;16.282;2022-09-09T12:45:03;25.10;99.90
12922;DHT22;6528;48.086;16.282;2022-09-09T12:47:40;25.10;99.90
12922;DHT22;6528;48.086;16.282;2022-09-09T12:50:45;25.00;99.90
12922;DHT22;6528;48.086;16.282;2022-09-09T12:53:29;24.90;99.90
12922;DHT22;6528;48.086;16.282;2022-09-09T12:56:04;24.80;99.90
12922;DHT22;6528;48.086;16.282;2022-09-09T12:58:35;24.80;99.90
12922;DHT22;6528;48.086;16.282;2022-09-09T13:01:03;24.70;99.90
12922;DHT22;6528;48.086;16.282;2022-09-09T13:03:42;24.70;99.90
12922;DHT22;6528;48.086;16.282;2022-09-09T13:06:24;24.60;99.90
12922;DHT22;6528;48.086;16.282;2022-09-09T13:08:59;24.60;99.90
12922;DHT22;6528;48.086;16.282;2022-09-09T13:11:30;24.50;99.90
12922;DHT22;6528;48.086;16.282;2022-09-09T13:14:02;24.40;99.90
12922;DHT22;6528;48.086;16.282;2022-09-09T13:16:31;24.30;99.90
12922;DHT22;6528;48.086;16.282;2022-09-09T13:19:02;24.30;99.90
12922;DHT22;6528;48.086;16.282;2022-09-09T13:21:34;24.20;99.90
12922;DHT22;6528;48.086;16.282;2022-09-09T13:26:30;24.40;99.90
12922;DHT22;6528;48.086;16.282;2022-09-09T13:29:14;24.00;99.90
12922;DHT22;6528;48.086;16.282;2022-09-09T13:31:44;23.90;1.00
12922;DHT22;6528;48.086;16.282;2022-09-09T13:34:32;23.80;99.90
12922;DHT22;6528;48.086;16.282;2022-09-09T13:37:02;23.70;99.90
12922;DHT22;6528;48.086;16.282;2022-09-09T13:39:30;23.60;99.90
12922;DHT22;6528;48.086;16.282;2022-09-09T13:41:56;23.50;99.90
12922;DHT22;6528;48.086;16.282;2022-09-09T13:44:26;23.40;99.90
12922;DHT22;6528;48.086;16.282;2022-09-09T13:47:05;23.30;99.90
12922;DHT22;6528;48.086;16.282;2022-09-09T13:49:36;23.20;99.90
12922;DHT22;6528;48.086;16.282;2022-09-09T13:52:11;23.10;99.90
12922;DHT22;6528;48.086;16.282;2022-09-09T13:54:38;23.10;99.90
12922;DHT22;6528;48.086;16.282;2022-09-09T13:57:16;23.00;99.90
12922;DHT22;6528;48.086;16.282;2022-09-09T13:59:45;23.00;99.90
12922;DHT22;6528;48.086;16.282;2022-09-09T14:02:30;23.00;99.90
12922;DHT22;6528;48.086;16.282;2022-09-09T14:04:57;23.00;99.90
12922;DHT22;6528;48.086;16.282;2022-09-09T14:07:24;23.00;99.90
12922;DHT22;6528;48.086;16.282;2022-09-09T14:09:51;23.00;99.90
12922;DHT22;6528;48.086;16.282;2022-09-09T14:12:19;23.10;99.90
12922;DHT22;6528;48.086;16.282;2022-09-09T14:14:46;23.10;99.90
12922;DHT22;6528;48.086;16.282;2022-09-09T14:17:13;23.10;99.90
12922;DHT22;6528;48.086;16.282;2022-09-09T14:19:40;23.10;99.90
12922;DHT22;6528;48.086;16.282;2022-09-09T14:22:07;23.00;99.90
12922;DHT22;6528;48.086;16.282;2022-09-09T14:24:34;22.90;99.90
12922;DHT22;6528;48.086;16.282;2022-09-09T14:27:00;22.80;99.90
12922;DHT22;6528;48.086;16.282;2022-09-09T14:29:27;22.70;99.90
12922;DHT22;6528;48.086;16.282;2022-09-09T14:31:54;22.60;99.90
12922;DHT22;6528;48.086;16.282;2022-09-09T14:34:21;22.50;99.90
12922;DHT22;6528;48.086;16.282;2022-09-09T17:38:00;22.40;99.90
12922;DHT22;6528;48.086;16.282;2022-09-09T17:40:27;18.40;99.90
12922;DHT22;6528;48.086;16.282;2022-09-09T20:16:34;18.30;99.90
12922;DHT22;6528;48.086;16.282;2022-09-09T20:19:03;16.90;99.90
12922;DHT22;6528;48.086;16.282;2022-09-09T20:21:36;16.80;99.90
12922;DHT22;6528;48.086;16.282;2022-09-09T20:24:06;16.90;99.90
12922;DHT22;6528;48.086;16.282;2022-09-09T20:26:35;16.80;99.90
12922;DHT22;6528;48.086;16.282;2022-09-09T20:29:05;16.80;99.90
12922;DHT22;6528;48.086;16.282;2022-09-09T20:31:34;16.80;99.90
12922;DHT22;6528;48.086;16.282;2022-09-09T20:34:03;16.80;99.90
12922;DHT22;6528;48.086;16.282;2022-09-09T20:36:33;16.80;99.90
12922;DHT22;6528;48.086;16.282;2022-09-09T20:39:15;16.70;99.90
12922;DHT22;6528;48.086;16.282;2022-09-09T20:41:43;16.70;99.90
12922;DHT22;6528;48.086;16.282;2022-09-09T20:44:13;16.70;99.90
12922;DHT22;6528;48.086;16.282;2022-09-09T20:46:46;16.70;99.90
12922;DHT22;6528;48.086;16.282;2022-09-09T20:49:15;16.70;99.90
12922;DHT22;6528;48.086;16.282;2022-09-09T20:51:44;16.70;99.90
12922;DHT22;6528;48.086;16.282;2022-09-09T20:54:13;16.70;99.90
12922;DHT22;6528;48.086;16.282;2022-09-09T20:56:42;16.60;99.90
12922;DHT22;6528;48.086;16.282;2022-09-09T20:59:21;16.60;99.90
12922;DHT22;6528;48.086;16.282;2022-09-09T21:01:48;16.60;99.90
12922;DHT22;6528;48.086;16.282;2022-09-09T21:04:17;16.60;99.90
12922;DHT22;6528;48.086;16.282;2022-09-09T21:06:46;16.60;99.90
12922;DHT22;6528;48.086;16.282;2022-09-09T21:09:13;16.60;99.90
12922;DHT22;6528;48.086;16.282;2022-09-09T21:11:40;16.60;99.90
12922;DHT22;6528;48.086;16.282;2022-09-09T21:14:07;16.60;99.90
12922;DHT22;6528;48.086;16.282;2022-09-09T21:16:34;16.60;99.90
12922;DHT22;6528;48.086;16.282;2022-09-09T21:19:01;16.70;99.90
12922;DHT22;6528;48.086;16.282;2022-09-09T21:21:28;16.70;99.90
12922;DHT22;6528;48.086;16.282;2022-09-09T21:23:56;16.70;99.90
12922;DHT22;6528;48.086;16.282;2022-09-09T21:26:24;16.70;99.90
12922;DHT22;6528;48.086;16.282;2022-09-09T21:28:51;16.70;99.90
12922;DHT22;6528;48.086;16.282;2022-09-09T21:31:19;16.70;99.90
12922;DHT22;6528;48.086;16.282;2022-09-09T21:33:53;16.80;99.90
12922;DHT22;6528;48.086;16.282;2022-09-09T21:36:19;16.70;99.90
12922;DHT22;6528;48.086;16.282;2022-09-09T21:38:46;16.70;99.90
12922;DHT22;6528;48.086;16.282;2022-09-09T21:41:14;16.70;99.90
12922;DHT22;6528;48.086;16.282;2022-09-09T21:43:45;16.70;99.90
12922;DHT22;6528;48.086;16.282;2022-09-09T21:46:14;16.70;99.90
12922;DHT22;6528;48.086;16.282;2022-09-09T21:48:42;16.70;99.90
12922;DHT22;6528;48.086;16.282;2022-09-09T21:51:12;16.70;99.90
12922;DHT22;6528;48.086;16.282;2022-09-09T21:53:40;16.70;99.90
12922;DHT22;6528;48.086;16.282;2022-09-09T21:56:10;16.70;99.90
12922;DHT22;6528;48.086;16.282;2022-09-09T21:58:37;16.60;99.90
12922;DHT22;6528;48.086;16.282;2022-09-09T22:01:11;16.60;99.90
12922;DHT22;6528;48.086;16.282;2022-09-09T22:03:38;16.60;99.90
12922;DHT22;6528;48.086;16.282;2022-09-09T22:06:06;16.60;99.90
12922;DHT22;6528;48.086;16.282;2022-09-09T22:08:35;16.60;99.90
12922;DHT22;6528;48.086;16.282;2022-09-09T22:11:13;16.50;99.90
12922;DHT22;6528;48.086;16.282;2022-09-09T22:13:41;16.50;99.90
12922;DHT22;6528;48.086;16.282;2022-09-09T22:16:10;16.50;99.90
12922;DHT22;6528;48.086;16.282;2022-09-09T22:18:37;16.50;99.90
12922;DHT22;6528;48.086;16.282;2022-09-09T22:21:10;16.50;99.90
12922;DHT22;6528;48.086;16.282;2022-09-09T22:23:37;16.50;99.90
12922;DHT22;6528;48.086;16.282;2022-09-09T22:26:04;16.50;99.90
12922;DHT22;6528;48.086;16.282;2022-09-09T22:28:32;16.50;99.90
12922;DHT22;6528;48.086;16.282;2022-09-09T22:30:59;16.50;99.90
12922;DHT22;6528;48.086;16.282;2022-09-09T22:33:26;16.60;99.90
12922;DHT22;6528;48.086;16.282;2022-09-09T22:35:53;16.60;99.90
12922;DHT22;6528;48.086;16.282;2022-09-09T22:38:20;16.60;99.90
12922;DHT22;6528;48.086;16.282;2022-09-09T22:40:47;16.60;99.90
12922;DHT22;6528;48.086;16.282;2022-09-09T22:43:17;16.60;99.90
12922;DHT22;6528;48.086;16.282;2022-09-09T22:45:45;16.60;99.90
12922;DHT22;6528;48.086;16.282;2022-09-09T22:48:12;16.70;99.90
12922;DHT22;6528;48.086;16.282;2022-09-09T22:50:40;16.70;99.90
12922;DHT22;6528;48.086;16.282;2022-09-09T22:53:09;16.70;99.90
12922;DHT22;6528;48.086;16.282;2022-09-09T22:55:39;16.70;99.90
12922;DHT22;6528;48.086;16.282;2022-09-09T22:58:06;16.70;99.90
12922;DHT22;6528;48.086;16.282;2022-09-09T23:00:33;16.70;99.90
12922;DHT22;6528;48.086;16.282;2022-09-09T23:03:00;16.70;99.90
12922;DHT22;6528;48.086;16.282;2022-09-09T23:05:26;16.70;99.90
12922;DHT22;6528;48.086;16.282;2022-09-09T23:07:53;16.60;99.90
12922;DHT22;6528;48.086;16.282;2022-09-09T23:10:24;16.60;99.90
12922;DHT22;6528;48.086;16.282;2022-09-09T23:12:52;16.60;99.90
12922;DHT22;6528;48.086;16.282;2022-09-09T23:15:19;16.60;99.90
12922;DHT22;6528;48.086;16.282;2022-09-09T23:17:46;16.60;99.90
12922;DHT22;6528;48.086;16.282;2022-09-09T23:20:13;16.60;99.90
12922;DHT22;6528;48.086;16.282;2022-09-09T23:22:39;16.60;99.90
12922;DHT22;6528;48.086;16.282;2022-09-09T23:25:07;16.60;99.90
12922;DHT22;6528;48.086;16.282;2022-09-09T23:27:33;16.60;99.90
12922;DHT22;6528;48.086;16.282;2022-09-09T23:30:04;16.60;99.90
12922;DHT22;6528;48.086;16.282;2022-09-09T23:32:32;16.60;99.90
12922;DHT22;6528;48.086;16.282;2022-09-09T23:34:59;16.50;99.90
12922;DHT22;6528;48.086;16.282;2022-09-09T23:37:26;16.50;99.90
12922;DHT22;6528;48.086;16.282;2022-09-09T23:39:53;16.50;99.90
12922;DHT22;6528;48.086;16.282;2022-09-09T23:42:20;16.50;99.90
12922;DHT22;6528;48.086;16.282;2022-09-09T23:44:46;16.50;99.90
12922;DHT22;6528;48.086;16.282;2022-09-09T23:47:13;16.50;99.90
12922;DHT22;6528;48.086;16.282;2022-09-09T23:49:40;16.50;99.90
12922;DHT22;6528;48.086;16.282;2022-09-09T23:52:07;16.50;99.90
12922;DHT22;6528;48.086;16.282;2022-09-09T23:54:34;16.50;99.90
12922;DHT22;6528;48.086;16.282;2022-09-09T23:57:01;16.50;99.90
12922;DHT22;6528;48.086;16.282;2022-09-09T23:59:30;16.50;99.90
